KSTS

Charles M. Schulz - Sonoma County Airport

Airport
ICAO code
KSTS
IATA Code
STS
Summary
ICAO Region
NAM
ICAO Territory
Location

Windsor, California

Serving
Santa Rosa
Elevation
129 ft
Coordinates
38° 30' 34" N , 122° 48' 48" W
KCC
Metar
KSTS 201953Z 12004KT 3SM RA BR BKN035 OVC050 10/09 A3007 RMK AO2 SLP177 P0027 T01000094

Description

Charles M. Schulz–Sonoma County Airport is a county-owned public-use airport located 6 nm northwest of downtown Santa Rosa, a city in Sonoma County, California, USA.

Runways

Designator Length Width Surface Rops
1/19 1525 30 ASP Yes/Yes
14/32 1559 46 ASP Yes/Yes

Airport map

Aerial View

SKYbrary Partners:

Safety knowledge contributed by: